Terminal Aerodrome Forecast
Issued by NWS Twin Cities, MN

Home | Current Version | Previous Version | Text Only | Print | Product List | Glossary On
Versions: 1 2 3 4 5 6 7 8 9 10 11 12
650
FTUS43 KMPX 250539
TAFEAU
TAF
KEAU 250539Z 2506/2606 15009KT P6SM SCT080 BKN250
     FM251000 22005KT P6SM BKN050 OVC100
      TEMPO 2510/2513 3SM BR BKN007
     FM251800 29007KT P6SM BKN060 PROB30 2518/2524 -SHRA=

USA.gov is the U.S. government's official web portal to all federal, state and local government web resources and services.